Terminal Aerodrome Forecast
Issued by NWS

Current Version | Previous Version | Text Only | Print | Product List | Glossary On
Versions: 1 2 3 4 5 6 7 8 9 10 11 12 13 14 15 16 17 18 19 20 21 22 23 24 25 26 27 28 29 30 31 32 33 34 35 36 37 38 39 40 41 42 43 44
991
FTUS41 KBOX 272333
TAFACK
TAF
KACK 272333Z 2800/2824 22009KT 3SM BR VCSH OVC004
     FM280200 30008KT 2SM -DZ BR OVC003
     FM280600 33006KT 1SM -DZ BR BKN003
     FM281100 03005KT 2SM -DZ BR BKN003
     FM281400 08006KT 4SM BR VCSH BKN004
     FM282200 09007KT 4SM BR VCSH OVC008=

USA.gov is the U.S. government's official web portal to all federal, state and local government web resources and services.